sensor_id;sensor_type;location;lat;lon;timestamp;P1;durP1;ratioP1;P2;durP2;ratioP2
43146;SDS011;28752;48.266;7.402;2023-03-13T00:01:27;9.88;;;2.47;;
43146;SDS011;28752;48.266;7.402;2023-03-13T00:03:55;10.13;;;2.78;;
43146;SDS011;28752;48.266;7.402;2023-03-13T00:06:21;12.53;;;2.93;;
43146;SDS011;28752;48.266;7.402;2023-03-13T00:08:48;10.25;;;3.00;;
43146;SDS011;28752;48.266;7.402;2023-03-13T00:11:14;14.77;;;3.30;;
43146;SDS011;28752;48.266;7.402;2023-03-13T00:13:40;10.65;;;3.10;;
43146;SDS011;28752;48.266;7.402;2023-03-13T00:16:08;9.00;;;2.60;;
43146;SDS011;28752;48.266;7.402;2023-03-13T00:18:35;10.70;;;3.05;;
43146;SDS011;28752;48.266;7.402;2023-03-13T00:21:02;11.13;;;2.60;;
43146;SDS011;28752;48.266;7.402;2023-03-13T00:23:31;15.15;;;2.80;;
43146;SDS011;28752;48.266;7.402;2023-03-13T00:25:58;9.77;;;3.25;;
43146;SDS011;28752;48.266;7.402;2023-03-13T00:28:29;11.57;;;2.70;;
43146;SDS011;28752;48.266;7.402;2023-03-13T00:31:06;8.10;;;2.35;;
43146;SDS011;28752;48.266;7.402;2023-03-13T00:33:32;9.13;;;2.47;;
43146;SDS011;28752;48.266;7.402;2023-03-13T00:36:00;14.02;;;3.03;;
43146;SDS011;28752;48.266;7.402;2023-03-13T00:38:27;12.45;;;2.78;;
43146;SDS011;28752;48.266;7.402;2023-03-13T00:43:26;10.40;;;2.13;;
43146;SDS011;28752;48.266;7.402;2023-03-13T00:45:52;11.70;;;2.80;;
43146;SDS011;28752;48.266;7.402;2023-03-13T00:48:18;8.48;;;2.58;;
43146;SDS011;28752;48.266;7.402;2023-03-13T00:50:43;9.43;;;2.60;;
43146;SDS011;28752;48.266;7.402;2023-03-13T00:53:09;10.40;;;2.57;;
43146;SDS011;28752;48.266;7.402;2023-03-13T00:55:34;8.50;;;2.50;;
43146;SDS011;28752;48.266;7.402;2023-03-13T00:57:59;7.87;;;2.30;;
43146;SDS011;28752;48.266;7.402;2023-03-13T01:00:25;12.70;;;2.93;;
43146;SDS011;28752;48.266;7.402;2023-03-13T01:02:50;9.77;;;2.87;;
43146;SDS011;28752;48.266;7.402;2023-03-13T01:05:15;10.23;;;2.80;;
43146;SDS011;28752;48.266;7.402;2023-03-13T01:07:41;12.10;;;2.97;;
43146;SDS011;28752;48.266;7.402;2023-03-13T01:10:06;8.93;;;2.83;;
43146;SDS011;28752;48.266;7.402;2023-03-13T01:12:32;8.95;;;2.60;;
43146;SDS011;28752;48.266;7.402;2023-03-13T01:14:57;7.30;;;2.50;;
43146;SDS011;28752;48.266;7.402;2023-03-13T01:17:22;8.70;;;2.30;;
43146;SDS011;28752;48.266;7.402;2023-03-13T01:19:48;8.33;;;2.60;;
43146;SDS011;28752;48.266;7.402;2023-03-13T01:22:14;7.13;;;2.50;;
43146;SDS011;28752;48.266;7.402;2023-03-13T01:24:39;10.10;;;2.80;;
43146;SDS011;28752;48.266;7.402;2023-03-13T01:27:04;9.93;;;3.10;;
43146;SDS011;28752;48.266;7.402;2023-03-13T01:29:30;6.13;;;2.20;;
43146;SDS011;28752;48.266;7.402;2023-03-13T01:31:55;10.17;;;2.70;;
43146;SDS011;28752;48.266;7.402;2023-03-13T01:34:20;8.83;;;2.23;;
43146;SDS011;28752;48.266;7.402;2023-03-13T01:36:46;8.73;;;2.00;;
43146;SDS011;28752;48.266;7.402;2023-03-13T01:39:14;8.48;;;2.13;;
43146;SDS011;28752;48.266;7.402;2023-03-13T01:41:40;7.25;;;1.92;;
43146;SDS011;28752;48.266;7.402;2023-03-13T01:44:12;5.93;;;1.83;;
43146;SDS011;28752;48.266;7.402;2023-03-13T01:46:45;5.60;;;2.03;;
43146;SDS011;28752;48.266;7.402;2023-03-13T01:49:17;6.27;;;2.07;;
43146;SDS011;28752;48.266;7.402;2023-03-13T01:54:28;9.63;;;3.13;;
43146;SDS011;28752;48.266;7.402;2023-03-13T01:57:02;7.65;;;1.75;;
43146;SDS011;28752;48.266;7.402;2023-03-13T01:59:31;6.50;;;2.05;;
43146;SDS011;28752;48.266;7.402;2023-03-13T02:02:07;4.95;;;1.73;;
43146;SDS011;28752;48.266;7.402;2023-03-13T02:04:40;5.82;;;1.80;;
43146;SDS011;28752;48.266;7.402;2023-03-13T02:07:12;6.60;;;1.60;;
43146;SDS011;28752;48.266;7.402;2023-03-13T02:09:42;5.57;;;1.35;;
43146;SDS011;28752;48.266;7.402;2023-03-13T02:12:13;5.68;;;1.60;;
43146;SDS011;28752;48.266;7.402;2023-03-13T02:14:42;5.50;;;1.30;;
43146;SDS011;28752;48.266;7.402;2023-03-13T02:17:09;5.15;;;1.50;;
43146;SDS011;28752;48.266;7.402;2023-03-13T02:19:48;4.03;;;1.20;;
43146;SDS011;28752;48.266;7.402;2023-03-13T02:25:05;5.93;;;1.50;;
43146;SDS011;28752;48.266;7.402;2023-03-13T02:30:36;3.55;;;1.10;;
43146;SDS011;28752;48.266;7.402;2023-03-13T02:35:28;4.65;;;1.00;;
43146;SDS011;28752;48.266;7.402;2023-03-13T02:37:56;7.15;;;1.42;;
43146;SDS011;28752;48.266;7.402;2023-03-13T02:40:30;3.78;;;1.40;;
43146;SDS011;28752;48.266;7.402;2023-03-13T02:42:59;3.20;;;0.90;;
43146;SDS011;28752;48.266;7.402;2023-03-13T02:45:31;2.90;;;1.00;;
43146;SDS011;28752;48.266;7.402;2023-03-13T02:47:56;2.73;;;1.00;;
43146;SDS011;28752;48.266;7.402;2023-03-13T02:50:22;2.27;;;0.90;;
43146;SDS011;28752;48.266;7.402;2023-03-13T02:52:48;3.95;;;1.05;;
43146;SDS011;28752;48.266;7.402;2023-03-13T02:55:19;3.38;;;0.70;;
43146;SDS011;28752;48.266;7.402;2023-03-13T02:57:48;2.55;;;0.80;;
43146;SDS011;28752;48.266;7.402;2023-03-13T03:00:14;2.83;;;0.82;;
43146;SDS011;28752;48.266;7.402;2023-03-13T03:02:41;3.63;;;1.00;;
43146;SDS011;28752;48.266;7.402;2023-03-13T03:05:10;2.75;;;1.00;;
43146;SDS011;28752;48.266;7.402;2023-03-13T03:07:36;1.73;;;0.70;;
43146;SDS011;28752;48.266;7.402;2023-03-13T03:10:02;2.72;;;0.93;;
43146;SDS011;28752;48.266;7.402;2023-03-13T03:12:28;3.88;;;0.95;;
43146;SDS011;28752;48.266;7.402;2023-03-13T03:14:53;1.37;;;0.60;;
43146;SDS011;28752;48.266;7.402;2023-03-13T03:17:19;2.40;;;0.70;;
43146;SDS011;28752;48.266;7.402;2023-03-13T03:19:44;1.20;;;0.50;;
43146;SDS011;28752;48.266;7.402;2023-03-13T03:22:10;1.33;;;0.40;;
43146;SDS011;28752;48.266;7.402;2023-03-13T03:24:35;1.07;;;0.43;;
43146;SDS011;28752;48.266;7.402;2023-03-13T03:27:00;1.37;;;0.57;;
43146;SDS011;28752;48.266;7.402;2023-03-13T03:29:26;1.27;;;0.40;;
43146;SDS011;28752;48.266;7.402;2023-03-13T03:31:52;1.20;;;0.30;;
43146;SDS011;28752;48.266;7.402;2023-03-13T03:34:17;1.15;;;0.43;;
43146;SDS011;28752;48.266;7.402;2023-03-13T03:36:43;1.30;;;0.50;;
43146;SDS011;28752;48.266;7.402;2023-03-13T03:39:08;2.07;;;0.53;;
43146;SDS011;28752;48.266;7.402;2023-03-13T03:41:33;1.97;;;0.80;;
43146;SDS011;28752;48.266;7.402;2023-03-13T03:43:59;2.80;;;0.77;;
43146;SDS011;28752;48.266;7.402;2023-03-13T03:46:25;2.27;;;0.70;;
43146;SDS011;28752;48.266;7.402;2023-03-13T03:48:50;4.40;;;1.00;;
43146;SDS011;28752;48.266;7.402;2023-03-13T03:51:15;3.47;;;0.80;;
43146;SDS011;28752;48.266;7.402;2023-03-13T03:53:41;1.63;;;0.63;;
43146;SDS011;28752;48.266;7.402;2023-03-13T03:56:06;1.07;;;0.50;;
43146;SDS011;28752;48.266;7.402;2023-03-13T03:58:32;2.70;;;0.90;;
43146;SDS011;28752;48.266;7.402;2023-03-13T04:00:57;1.00;;;0.53;;
43146;SDS011;28752;48.266;7.402;2023-03-13T04:03:23;3.55;;;0.73;;
43146;SDS011;28752;48.266;7.402;2023-03-13T04:05:49;2.42;;;0.70;;
43146;SDS011;28752;48.266;7.402;2023-03-13T04:08:14;2.50;;;0.80;;
43146;SDS011;28752;48.266;7.402;2023-03-13T04:10:40;2.05;;;0.55;;
43146;SDS011;28752;48.266;7.402;2023-03-13T04:13:06;1.92;;;0.50;;
43146;SDS011;28752;48.266;7.402;2023-03-13T04:15:32;2.13;;;0.40;;
43146;SDS011;28752;48.266;7.402;2023-03-13T04:17:57;1.53;;;0.40;;
43146;SDS011;28752;48.266;7.402;2023-03-13T04:20:23;1.17;;;0.40;;
43146;SDS011;28752;48.266;7.402;2023-03-13T04:22:48;1.23;;;0.50;;
43146;SDS011;28752;48.266;7.402;2023-03-13T04:25:13;1.17;;;0.50;;
43146;SDS011;28752;48.266;7.402;2023-03-13T04:27:39;1.07;;;0.40;;
43146;SDS011;28752;48.266;7.402;2023-03-13T04:30:04;1.90;;;0.40;;
43146;SDS011;28752;48.266;7.402;2023-03-13T04:34:56;1.55;;;0.50;;
43146;SDS011;28752;48.266;7.402;2023-03-13T04:37:21;1.07;;;0.40;;
43146;SDS011;28752;48.266;7.402;2023-03-13T04:39:47;0.73;;;0.33;;
43146;SDS011;28752;48.266;7.402;2023-03-13T04:42:12;2.83;;;0.33;;
43146;SDS011;28752;48.266;7.402;2023-03-13T04:44:37;0.90;;;0.30;;
43146;SDS011;28752;48.266;7.402;2023-03-13T04:47:03;0.87;;;0.30;;
43146;SDS011;28752;48.266;7.402;2023-03-13T04:49:29;0.93;;;0.30;;
43146;SDS011;28752;48.266;7.402;2023-03-13T04:51:54;1.70;;;0.60;;
43146;SDS011;28752;48.266;7.402;2023-03-13T04:54:20;1.33;;;0.30;;
43146;SDS011;28752;48.266;7.402;2023-03-13T04:56:45;3.03;;;0.40;;
43146;SDS011;28752;48.266;7.402;2023-03-13T04:59:11;1.57;;;0.40;;
43146;SDS011;28752;48.266;7.402;2023-03-13T05:01:38;1.48;;;0.30;;
43146;SDS011;28752;48.266;7.402;2023-03-13T05:04:03;1.33;;;0.40;;
43146;SDS011;28752;48.266;7.402;2023-03-13T05:06:29;0.68;;;0.30;;
43146;SDS011;28752;48.266;7.402;2023-03-13T05:08:54;2.43;;;0.33;;
43146;SDS011;28752;48.266;7.402;2023-03-13T05:11:20;0.40;;;0.30;;
43146;SDS011;28752;48.266;7.402;2023-03-13T05:13:45;1.20;;;0.40;;
43146;SDS011;28752;48.266;7.402;2023-03-13T05:16:11;0.93;;;0.30;;
43146;SDS011;28752;48.266;7.402;2023-03-13T05:18:36;1.13;;;0.30;;
43146;SDS011;28752;48.266;7.402;2023-03-13T05:21:03;1.17;;;0.60;;
43146;SDS011;28752;48.266;7.402;2023-03-13T05:23:29;1.98;;;0.60;;
43146;SDS011;28752;48.266;7.402;2023-03-13T05:25:54;2.37;;;0.40;;
43146;SDS011;28752;48.266;7.402;2023-03-13T05:28:19;2.40;;;0.63;;
43146;SDS011;28752;48.266;7.402;2023-03-13T05:30:45;1.30;;;0.50;;
43146;SDS011;28752;48.266;7.402;2023-03-13T05:33:10;0.57;;;0.20;;
43146;SDS011;28752;48.266;7.402;2023-03-13T05:35:36;1.50;;;0.40;;
43146;SDS011;28752;48.266;7.402;2023-03-13T05:38:01;1.43;;;0.40;;
43146;SDS011;28752;48.266;7.402;2023-03-13T05:40:26;1.53;;;0.30;;
43146;SDS011;28752;48.266;7.402;2023-03-13T05:42:52;2.27;;;0.60;;
43146;SDS011;28752;48.266;7.402;2023-03-13T05:45:17;1.80;;;0.40;;
43146;SDS011;28752;48.266;7.402;2023-03-13T05:47:43;1.40;;;0.30;;
43146;SDS011;28752;48.266;7.402;2023-03-13T05:50:09;0.90;;;0.40;;
43146;SDS011;28752;48.266;7.402;2023-03-13T05:52:34;1.13;;;0.40;;
43146;SDS011;28752;48.266;7.402;2023-03-13T05:55:00;1.27;;;0.80;;
43146;SDS011;28752;48.266;7.402;2023-03-13T05:57:26;0.73;;;0.40;;
43146;SDS011;28752;48.266;7.402;2023-03-13T05:59:51;0.93;;;0.40;;
43146;SDS011;28752;48.266;7.402;2023-03-13T06:02:16;1.37;;;0.50;;
43146;SDS011;28752;48.266;7.402;2023-03-13T06:04:42;1.50;;;0.50;;
43146;SDS011;28752;48.266;7.402;2023-03-13T06:07:07;1.53;;;0.43;;
43146;SDS011;28752;48.266;7.402;2023-03-13T06:09:32;1.23;;;0.50;;
43146;SDS011;28752;48.266;7.402;2023-03-13T06:11:58;1.30;;;0.40;;
43146;SDS011;28752;48.266;7.402;2023-03-13T06:14:23;1.25;;;0.50;;
43146;SDS011;28752;48.266;7.402;2023-03-13T06:16:49;1.15;;;0.40;;
43146;SDS011;28752;48.266;7.402;2023-03-13T06:19:14;1.53;;;0.50;;
43146;SDS011;28752;48.266;7.402;2023-03-13T06:21:40;0.77;;;0.40;;
43146;SDS011;28752;48.266;7.402;2023-03-13T06:24:05;0.93;;;0.40;;
43146;SDS011;28752;48.266;7.402;2023-03-13T06:26:31;0.88;;;0.47;;
43146;SDS011;28752;48.266;7.402;2023-03-13T06:28:56;2.43;;;0.77;;
43146;SDS011;28752;48.266;7.402;2023-03-13T06:31:22;2.23;;;0.63;;
43146;SDS011;28752;48.266;7.402;2023-03-13T06:33:47;1.47;;;0.70;;
43146;SDS011;28752;48.266;7.402;2023-03-13T06:36:12;1.23;;;0.57;;
43146;SDS011;28752;48.266;7.402;2023-03-13T06:38:38;1.77;;;0.70;;
43146;SDS011;28752;48.266;7.402;2023-03-13T06:41:03;5.70;;;0.70;;
43146;SDS011;28752;48.266;7.402;2023-03-13T06:43:29;1.67;;;0.83;;
43146;SDS011;28752;48.266;7.402;2023-03-13T06:45:54;0.70;;;0.40;;
43146;SDS011;28752;48.266;7.402;2023-03-13T06:48:19;1.10;;;0.60;;
43146;SDS011;28752;48.266;7.402;2023-03-13T06:50:47;1.92;;;0.70;;
43146;SDS011;28752;48.266;7.402;2023-03-13T06:53:16;1.40;;;0.60;;
43146;SDS011;28752;48.266;7.402;2023-03-13T06:55:43;0.90;;;0.60;;
43146;SDS011;28752;48.266;7.402;2023-03-13T06:58:09;1.38;;;0.60;;
43146;SDS011;28752;48.266;7.402;2023-03-13T07:00:35;1.57;;;0.60;;
43146;SDS011;28752;48.266;7.402;2023-03-13T07:03:00;2.38;;;0.80;;
43146;SDS011;28752;48.266;7.402;2023-03-13T07:05:26;2.03;;;0.90;;
43146;SDS011;28752;48.266;7.402;2023-03-13T07:07:51;2.53;;;0.93;;
43146;SDS011;28752;48.266;7.402;2023-03-13T07:10:17;2.40;;;1.10;;
43146;SDS011;28752;48.266;7.402;2023-03-13T07:12:42;2.78;;;1.15;;
43146;SDS011;28752;48.266;7.402;2023-03-13T07:15:08;2.78;;;1.23;;
43146;SDS011;28752;48.266;7.402;2023-03-13T07:17:35;3.95;;;1.52;;
43146;SDS011;28752;48.266;7.402;2023-03-13T07:20:01;3.90;;;1.40;;
43146;SDS011;28752;48.266;7.402;2023-03-13T07:22:28;3.95;;;1.30;;
43146;SDS011;28752;48.266;7.402;2023-03-13T07:24:54;2.73;;;1.00;;
43146;SDS011;28752;48.266;7.402;2023-03-13T07:27:19;2.53;;;1.10;;
43146;SDS011;28752;48.266;7.402;2023-03-13T07:29:45;1.67;;;0.80;;
43146;SDS011;28752;48.266;7.402;2023-03-13T07:32:10;1.55;;;0.70;;
43146;SDS011;28752;48.266;7.402;2023-03-13T07:34:36;1.73;;;0.80;;
43146;SDS011;28752;48.266;7.402;2023-03-13T07:37:01;3.50;;;1.20;;
43146;SDS011;28752;48.266;7.402;2023-03-13T07:39:27;1.80;;;0.80;;
43146;SDS011;28752;48.266;7.402;2023-03-13T07:41:52;1.90;;;1.00;;
43146;SDS011;28752;48.266;7.402;2023-03-13T07:44:17;3.37;;;0.93;;
43146;SDS011;28752;48.266;7.402;2023-03-13T07:46:43;2.07;;;0.83;;
43146;SDS011;28752;48.266;7.402;2023-03-13T07:49:08;3.90;;;1.20;;
43146;SDS011;28752;48.266;7.402;2023-03-13T07:51:33;3.63;;;1.50;;
43146;SDS011;28752;48.266;7.402;2023-03-13T07:53:59;3.77;;;1.50;;
43146;SDS011;28752;48.266;7.402;2023-03-13T07:56:24;3.07;;;1.30;;
43146;SDS011;28752;48.266;7.402;2023-03-13T07:58:49;2.00;;;1.10;;
43146;SDS011;28752;48.266;7.402;2023-03-13T08:01:19;2.93;;;1.10;;
43146;SDS011;28752;48.266;7.402;2023-03-13T08:03:46;2.05;;;0.93;;
43146;SDS011;28752;48.266;7.402;2023-03-13T08:06:15;3.33;;;1.60;;
43146;SDS011;28752;48.266;7.402;2023-03-13T08:08:43;3.08;;;1.00;;
43146;SDS011;28752;48.266;7.402;2023-03-13T08:11:10;1.77;;;0.88;;
43146;SDS011;28752;48.266;7.402;2023-03-13T08:13:37;2.55;;;0.80;;
43146;SDS011;28752;48.266;7.402;2023-03-13T08:16:04;3.33;;;1.10;;
43146;SDS011;28752;48.266;7.402;2023-03-13T08:18:31;2.15;;;1.10;;
43146;SDS011;28752;48.266;7.402;2023-03-13T08:23:51;3.55;;;1.10;;
43146;SDS011;28752;48.266;7.402;2023-03-13T08:26:18;3.72;;;1.38;;
43146;SDS011;28752;48.266;7.402;2023-03-13T08:28:45;4.40;;;1.38;;
43146;SDS011;28752;48.266;7.402;2023-03-13T08:31:21;5.05;;;1.83;;
43146;SDS011;28752;48.266;7.402;2023-03-13T08:33:48;4.03;;;1.13;;
43146;SDS011;28752;48.266;7.402;2023-03-13T08:36:18;3.05;;;1.17;;
43146;SDS011;28752;48.266;7.402;2023-03-13T08:38:46;2.22;;;1.05;;
43146;SDS011;28752;48.266;7.402;2023-03-13T08:41:16;2.80;;;0.90;;
43146;SDS011;28752;48.266;7.402;2023-03-13T08:43:43;3.35;;;1.10;;
43146;SDS011;28752;48.266;7.402;2023-03-13T08:48:34;2.75;;;0.80;;
43146;SDS011;28752;48.266;7.402;2023-03-13T08:51:04;3.85;;;1.10;;
43146;SDS011;28752;48.266;7.402;2023-03-13T08:53:32;4.25;;;1.10;;
43146;SDS011;28752;48.266;7.402;2023-03-13T08:55:58;3.17;;;1.30;;
43146;SDS011;28752;48.266;7.402;2023-03-13T09:00:50;2.78;;;1.02;;
43146;SDS011;28752;48.266;7.402;2023-03-13T09:03:16;1.60;;;0.90;;
43146;SDS011;28752;48.266;7.402;2023-03-13T09:05:42;3.88;;;1.00;;
43146;SDS011;28752;48.266;7.402;2023-03-13T09:08:08;2.13;;;0.90;;
43146;SDS011;28752;48.266;7.402;2023-03-13T09:10:33;5.35;;;1.25;;
43146;SDS011;28752;48.266;7.402;2023-03-13T09:15:25;2.90;;;1.05;;
43146;SDS011;28752;48.266;7.402;2023-03-13T09:17:50;2.60;;;1.03;;
43146;SDS011;28752;48.266;7.402;2023-03-13T09:20:15;2.43;;;0.90;;
43146;SDS011;28752;48.266;7.402;2023-03-13T09:22:42;2.65;;;0.80;;
43146;SDS011;28752;48.266;7.402;2023-03-13T09:25:08;2.05;;;0.95;;
43146;SDS011;28752;48.266;7.402;2023-03-13T09:27:34;3.00;;;0.88;;
43146;SDS011;28752;48.266;7.402;2023-03-13T09:30:01;1.63;;;0.70;;
43146;SDS011;28752;48.266;7.402;2023-03-13T09:32:26;3.38;;;1.00;;
43146;SDS011;28752;48.266;7.402;2023-03-13T09:34:51;2.13;;;0.80;;
43146;SDS011;28752;48.266;7.402;2023-03-13T09:37:17;1.53;;;0.67;;
43146;SDS011;28752;48.266;7.402;2023-03-13T09:39:42;2.07;;;0.97;;
43146;SDS011;28752;48.266;7.402;2023-03-13T09:44:58;2.60;;;0.80;;
43146;SDS011;28752;48.266;7.402;2023-03-13T09:47:41;3.85;;;1.05;;
43146;SDS011;28752;48.266;7.402;2023-03-13T09:52:56;1.35;;;0.75;;
43146;SDS011;28752;48.266;7.402;2023-03-13T09:55:31;2.25;;;0.93;;
43146;SDS011;28752;48.266;7.402;2023-03-13T09:58:01;3.70;;;1.00;;
43146;SDS011;28752;48.266;7.402;2023-03-13T10:00:36;3.13;;;0.68;;
43146;SDS011;28752;48.266;7.402;2023-03-13T10:05:52;1.50;;;0.70;;
43146;SDS011;28752;48.266;7.402;2023-03-13T10:08:22;1.80;;;0.70;;
43146;SDS011;28752;48.266;7.402;2023-03-13T10:10:59;1.40;;;0.70;;
43146;SDS011;28752;48.266;7.402;2023-03-13T10:13:52;2.75;;;0.60;;
43146;SDS011;28752;48.266;7.402;2023-03-13T10:16:28;1.38;;;0.85;;
43146;SDS011;28752;48.266;7.402;2023-03-13T10:18:59;3.10;;;1.10;;
43146;SDS011;28752;48.266;7.402;2023-03-13T10:21:35;2.50;;;1.02;;
43146;SDS011;28752;48.266;7.402;2023-03-13T10:26:47;2.83;;;0.65;;
43146;SDS011;28752;48.266;7.402;2023-03-13T10:29:18;1.97;;;0.90;;
43146;SDS011;28752;48.266;7.402;2023-03-13T10:31:52;3.42;;;1.00;;
43146;SDS011;28752;48.266;7.402;2023-03-13T10:34:18;1.83;;;0.80;;
43146;SDS011;28752;48.266;7.402;2023-03-13T10:36:45;2.75;;;0.95;;
43146;SDS011;28752;48.266;7.402;2023-03-13T10:39:18;2.75;;;0.90;;
43146;SDS011;28752;48.266;7.402;2023-03-13T10:41:47;2.95;;;0.90;;
43146;SDS011;28752;48.266;7.402;2023-03-13T10:44:18;2.53;;;1.05;;
43146;SDS011;28752;48.266;7.402;2023-03-13T10:46:47;1.73;;;0.70;;
43146;SDS011;28752;48.266;7.402;2023-03-13T10:49:14;1.98;;;0.80;;
43146;SDS011;28752;48.266;7.402;2023-03-13T10:51:46;3.17;;;0.70;;
43146;SDS011;28752;48.266;7.402;2023-03-13T10:54:26;2.53;;;0.77;;
43146;SDS011;28752;48.266;7.402;2023-03-13T10:59:55;1.98;;;0.80;;
43146;SDS011;28752;48.266;7.402;2023-03-13T11:02:24;1.67;;;0.70;;
43146;SDS011;28752;48.266;7.402;2023-03-13T11:04:52;1.38;;;0.65;;
43146;SDS011;28752;48.266;7.402;2023-03-13T11:07:34;2.10;;;0.75;;
43146;SDS011;28752;48.266;7.402;2023-03-13T11:12:48;1.13;;;0.60;;
43146;SDS011;28752;48.266;7.402;2023-03-13T11:20:55;2.55;;;0.80;;
43146;SDS011;28752;48.266;7.402;2023-03-13T11:23:29;1.98;;;0.70;;
43146;SDS011;28752;48.266;7.402;2023-03-13T11:28:41;2.67;;;0.82;;
43146;SDS011;28752;48.266;7.402;2023-03-13T11:31:40;2.10;;;0.80;;
43146;SDS011;28752;48.266;7.402;2023-03-13T11:36:51;2.70;;;0.80;;
43146;SDS011;28752;48.266;7.402;2023-03-13T11:50:39;1.38;;;0.68;;
43146;SDS011;28752;48.266;7.402;2023-03-13T11:58:37;2.08;;;0.60;;
43146;SDS011;28752;48.266;7.402;2023-03-13T12:01:23;1.98;;;0.90;;
43146;SDS011;28752;48.266;7.402;2023-03-13T12:06:43;2.80;;;1.10;;
43146;SDS011;28752;48.266;7.402;2023-03-13T12:12:10;2.47;;;0.50;;
43146;SDS011;28752;48.266;7.402;2023-03-13T12:30:51;3.05;;;0.90;;
43146;SDS011;28752;48.266;7.402;2023-03-13T12:33:20;2.75;;;0.80;;
43146;SDS011;28752;48.266;7.402;2023-03-13T12:41:42;2.90;;;1.30;;
43146;SDS011;28752;48.266;7.402;2023-03-13T12:44:10;4.45;;;1.10;;
43146;SDS011;28752;48.266;7.402;2023-03-13T12:46:57;3.03;;;1.02;;
43146;SDS011;28752;48.266;7.402;2023-03-13T12:58:00;2.67;;;0.90;;
43146;SDS011;28752;48.266;7.402;2023-03-13T13:00:30;1.90;;;0.75;;
43146;SDS011;28752;48.266;7.402;2023-03-13T13:05:37;1.90;;;0.70;;
43146;SDS011;28752;48.266;7.402;2023-03-13T13:08:03;1.92;;;0.50;;
43146;SDS011;28752;48.266;7.402;2023-03-13T13:10:29;2.03;;;0.88;;
43146;SDS011;28752;48.266;7.402;2023-03-13T13:15:40;2.42;;;0.85;;
43146;SDS011;28752;48.266;7.402;2023-03-13T13:18:25;2.90;;;0.60;;
43146;SDS011;28752;48.266;7.402;2023-03-13T13:23:29;1.17;;;0.60;;
43146;SDS011;28752;48.266;7.402;2023-03-13T13:28:54;2.53;;;0.85;;
43146;SDS011;28752;48.266;7.402;2023-03-13T13:36:51;2.17;;;0.77;;
43146;SDS011;28752;48.266;7.402;2023-03-13T13:39:28;1.33;;;0.60;;
43146;SDS011;28752;48.266;7.402;2023-03-13T13:41:56;2.15;;;0.70;;
43146;SDS011;28752;48.266;7.402;2023-03-13T13:44:23;2.33;;;0.90;;
43146;SDS011;28752;48.266;7.402;2023-03-13T13:46:53;3.28;;;0.90;;
43146;SDS011;28752;48.266;7.402;2023-03-13T13:49:30;2.13;;;0.70;;
43146;SDS011;28752;48.266;7.402;2023-03-13T13:54:32;1.83;;;0.80;;
43146;SDS011;28752;48.266;7.402;2023-03-13T13:57:20;1.60;;;0.68;;
43146;SDS011;28752;48.266;7.402;2023-03-13T13:59:48;1.65;;;0.82;;
43146;SDS011;28752;48.266;7.402;2023-03-13T14:02:19;2.42;;;0.90;;
43146;SDS011;28752;48.266;7.402;2023-03-13T14:04:51;3.83;;;0.88;;
43146;SDS011;28752;48.266;7.402;2023-03-13T14:07:24;1.80;;;0.98;;
43146;SDS011;28752;48.266;7.402;2023-03-13T14:09:59;4.72;;;0.98;;
43146;SDS011;28752;48.266;7.402;2023-03-13T14:15:09;2.27;;;1.00;;
43146;SDS011;28752;48.266;7.402;2023-03-13T14:17:44;3.22;;;0.80;;
43146;SDS011;28752;48.266;7.402;2023-03-13T14:20:15;2.35;;;0.98;;
43146;SDS011;28752;48.266;7.402;2023-03-13T14:22:47;4.45;;;1.00;;
43146;SDS011;28752;48.266;7.402;2023-03-13T14:25:14;1.92;;;0.90;;
43146;SDS011;28752;48.266;7.402;2023-03-13T14:27:43;1.80;;;0.60;;
43146;SDS011;28752;48.266;7.402;2023-03-13T14:30:10;2.72;;;0.70;;
43146;SDS011;28752;48.266;7.402;2023-03-13T14:32:38;2.55;;;0.70;;
43146;SDS011;28752;48.266;7.402;2023-03-13T14:35:04;2.38;;;0.70;;
43146;SDS011;28752;48.266;7.402;2023-03-13T14:37:35;1.55;;;0.80;;
43146;SDS011;28752;48.266;7.402;2023-03-13T14:42:45;2.15;;;0.80;;
43146;SDS011;28752;48.266;7.402;2023-03-13T14:45:13;1.80;;;0.60;;
43146;SDS011;28752;48.266;7.402;2023-03-13T14:47:43;2.40;;;0.70;;
43146;SDS011;28752;48.266;7.402;2023-03-13T14:50:10;1.88;;;0.70;;
43146;SDS011;28752;48.266;7.402;2023-03-13T14:52:42;1.98;;;0.68;;
43146;SDS011;28752;48.266;7.402;2023-03-13T14:58:01;3.20;;;0.80;;
43146;SDS011;28752;48.266;7.402;2023-03-13T15:06:03;2.55;;;0.90;;
43146;SDS011;28752;48.266;7.402;2023-03-13T15:08:36;1.98;;;0.70;;
43146;SDS011;28752;48.266;7.402;2023-03-13T15:17:10;1.88;;;0.80;;
43146;SDS011;28752;48.266;7.402;2023-03-13T15:19:38;1.13;;;0.60;;
43146;SDS011;28752;48.266;7.402;2023-03-13T15:22:03;1.27;;;0.40;;
43146;SDS011;28752;48.266;7.402;2023-03-13T15:24:28;1.35;;;0.60;;
43146;SDS011;28752;48.266;7.402;2023-03-13T15:26:54;0.95;;;0.70;;
43146;SDS011;28752;48.266;7.402;2023-03-13T15:29:19;1.33;;;0.60;;
43146;SDS011;28752;48.266;7.402;2023-03-13T15:31:45;2.70;;;0.63;;
43146;SDS011;28752;48.266;7.402;2023-03-13T15:34:13;2.90;;;0.60;;
43146;SDS011;28752;48.266;7.402;2023-03-13T15:36:40;2.35;;;0.75;;
43146;SDS011;28752;48.266;7.402;2023-03-13T15:39:14;1.80;;;0.80;;
43146;SDS011;28752;48.266;7.402;2023-03-13T15:41:40;1.70;;;0.55;;
43146;SDS011;28752;48.266;7.402;2023-03-13T15:46:32;1.52;;;0.68;;
43146;SDS011;28752;48.266;7.402;2023-03-13T15:48:57;1.33;;;0.60;;
43146;SDS011;28752;48.266;7.402;2023-03-13T15:51:22;2.00;;;0.70;;
43146;SDS011;28752;48.266;7.402;2023-03-13T15:53:48;1.08;;;0.50;;
43146;SDS011;28752;48.266;7.402;2023-03-13T15:56:14;2.58;;;0.50;;
43146;SDS011;28752;48.266;7.402;2023-03-13T15:58:41;2.03;;;0.60;;
43146;SDS011;28752;48.266;7.402;2023-03-13T16:01:09;3.28;;;0.63;;
43146;SDS011;28752;48.266;7.402;2023-03-13T16:03:36;0.82;;;0.43;;
43146;SDS011;28752;48.266;7.402;2023-03-13T16:06:04;1.80;;;0.70;;
43146;SDS011;28752;48.266;7.402;2023-03-13T16:08:38;2.20;;;0.95;;
43146;SDS011;28752;48.266;7.402;2023-03-13T16:11:03;1.37;;;0.50;;
43146;SDS011;28752;48.266;7.402;2023-03-13T16:13:29;0.60;;;0.40;;
43146;SDS011;28752;48.266;7.402;2023-03-13T16:15:55;1.60;;;0.50;;
43146;SDS011;28752;48.266;7.402;2023-03-13T16:18:24;1.85;;;0.65;;
43146;SDS011;28752;48.266;7.402;2023-03-13T16:20:50;2.00;;;0.65;;
43146;SDS011;28752;48.266;7.402;2023-03-13T16:23:16;2.55;;;0.57;;
43146;SDS011;28752;48.266;7.402;2023-03-13T16:25:42;1.25;;;0.50;;
43146;SDS011;28752;48.266;7.402;2023-03-13T16:28:10;1.25;;;0.57;;
43146;SDS011;28752;48.266;7.402;2023-03-13T16:30:37;2.28;;;0.70;;
43146;SDS011;28752;48.266;7.402;2023-03-13T16:33:10;1.48;;;0.50;;
43146;SDS011;28752;48.266;7.402;2023-03-13T16:35:35;2.47;;;0.77;;
43146;SDS011;28752;48.266;7.402;2023-03-13T16:38:01;1.15;;;0.50;;
43146;SDS011;28752;48.266;7.402;2023-03-13T16:40:28;2.13;;;0.57;;
43146;SDS011;28752;48.266;7.402;2023-03-13T16:42:58;0.90;;;0.50;;
43146;SDS011;28752;48.266;7.402;2023-03-13T16:45:23;1.50;;;0.60;;
43146;SDS011;28752;48.266;7.402;2023-03-13T16:47:49;1.33;;;0.68;;
43146;SDS011;28752;48.266;7.402;2023-03-13T16:52:46;2.80;;;0.80;;
43146;SDS011;28752;48.266;7.402;2023-03-13T16:55:12;1.63;;;0.77;;
43146;SDS011;28752;48.266;7.402;2023-03-13T16:57:37;1.75;;;0.77;;
43146;SDS011;28752;48.266;7.402;2023-03-13T17:00:08;1.70;;;0.80;;
43146;SDS011;28752;48.266;7.402;2023-03-13T17:02:39;1.95;;;0.80;;
43146;SDS011;28752;48.266;7.402;2023-03-13T17:05:05;2.93;;;0.80;;
43146;SDS011;28752;48.266;7.402;2023-03-13T17:07:30;3.08;;;1.20;;
43146;SDS011;28752;48.266;7.402;2023-03-13T17:09:56;4.83;;;1.77;;
43146;SDS011;28752;48.266;7.402;2023-03-13T17:12:22;5.03;;;1.42;;
43146;SDS011;28752;48.266;7.402;2023-03-13T17:17:20;2.45;;;1.05;;
43146;SDS011;28752;48.266;7.402;2023-03-13T17:19:46;3.67;;;1.30;;
43146;SDS011;28752;48.266;7.402;2023-03-13T17:22:13;2.63;;;0.90;;
43146;SDS011;28752;48.266;7.402;2023-03-13T17:24:40;4.15;;;1.30;;